createdAt,value
2024-02-29T00:01:11.902Z,97175.16
2024-02-29T00:03:39.792Z,97174.91
2024-02-29T00:06:07.259Z,97176.22
2024-02-29T00:08:34.643Z,97180.22
2024-02-29T00:11:02.005Z,97175.28
2024-02-29T00:13:29.325Z,97179.63
2024-02-29T00:15:58.740Z,97181.88
2024-02-29T00:18:26.532Z,97171.34
2024-02-29T00:20:53.845Z,97176.69
2024-02-29T00:23:21.013Z,97175.75
2024-02-29T00:25:48.322Z,97178.59
2024-02-29T00:28:15.705Z,97177.84
2024-02-29T00:30:43.225Z,97180.69
2024-02-29T00:33:10.806Z,97175.19
2024-02-29T00:35:38.000Z,97169.56
2024-02-29T00:38:05.128Z,97163.63
2024-02-29T00:40:34.705Z,97163.78
2024-02-29T00:43:02.079Z,97163.75
2024-02-29T00:45:30.852Z,97169.44
2024-02-29T00:48:00.758Z,97161.91
2024-02-29T00:50:41.242Z,97156.53
2024-02-29T00:56:06.814Z,97151.53
2024-02-29T00:58:36.740Z,97152.50
2024-02-29T01:01:05.055Z,97156.72
2024-02-29T01:03:35.149Z,97142.75
2024-02-29T01:06:03.402Z,97146.47
2024-02-29T01:08:32.406Z,97137.09
2024-02-29T01:11:01.220Z,97133.75
2024-02-29T01:13:29.486Z,97138.78
2024-02-29T01:15:57.828Z,97130.47
2024-02-29T01:18:25.609Z,97141.53
2024-02-29T01:20:54.352Z,97124.56
2024-02-29T01:23:22.231Z,97123.00
2024-02-29T01:25:49.927Z,97118.16
2024-02-29T01:28:18.228Z,97119.19
2024-02-29T01:30:47.150Z,97116.09
2024-02-29T01:33:15.485Z,97108.03
2024-02-29T01:35:43.952Z,97106.28
2024-02-29T01:38:12.124Z,97114.72
2024-02-29T01:40:40.062Z,97100.84
2024-02-29T01:43:07.869Z,97102.00
2024-02-29T01:45:36.602Z,97097.75
2024-02-29T01:48:04.624Z,97090.88
2024-02-29T01:50:33.055Z,97097.19
2024-02-29T01:53:00.894Z,97081.63
2024-02-29T01:55:28.981Z,97081.22
2024-02-29T01:57:57.445Z,97083.28
2024-02-29T02:00:26.051Z,97083.03
2024-02-29T02:02:54.322Z,97078.06
2024-02-29T02:05:25.116Z,97078.13
2024-02-29T02:07:53.303Z,97074.34
2024-02-29T02:10:21.418Z,97076.59
2024-02-29T02:12:49.678Z,97067.78
2024-02-29T02:15:21.060Z,97060.22
2024-02-29T02:17:49.059Z,97061.47
2024-02-29T02:20:16.963Z,97060.31
2024-02-29T02:22:45.374Z,97058.72
2024-02-29T02:25:14.752Z,97056.09
2024-02-29T02:27:42.068Z,97057.03
2024-02-29T02:30:09.877Z,97051.06
2024-02-29T02:32:40.934Z,97057.53
2024-02-29T02:35:08.469Z,97059.31
2024-02-29T02:37:35.519Z,97056.69
2024-02-29T02:40:02.755Z,97047.47
2024-02-29T02:42:30.458Z,97045.81
2024-02-29T02:44:57.536Z,97040.00
2024-02-29T02:47:25.052Z,97046.16
2024-02-29T02:49:52.401Z,97038.91
2024-02-29T02:52:19.644Z,97030.63
2024-02-29T02:54:47.061Z,97037.94
2024-02-29T02:57:14.443Z,97029.41
2024-02-29T02:59:41.841Z,97019.00
2024-02-29T03:02:09.279Z,97019.00
2024-02-29T03:04:37.499Z,97029.97
2024-02-29T03:07:04.848Z,97028.13
2024-02-29T03:09:32.549Z,97027.09
2024-02-29T03:11:59.766Z,97022.47
2024-02-29T03:14:27.221Z,97017.97
2024-02-29T03:16:54.908Z,97006.56
2024-02-29T03:19:22.463Z,97014.78
2024-02-29T03:21:50.324Z,97015.91
2024-02-29T03:24:17.672Z,96997.78
2024-02-29T03:26:45.946Z,97003.44
2024-02-29T03:29:16.295Z,97003.44
2024-02-29T03:31:44.176Z,97001.03
2024-02-29T03:34:12.844Z,96997.44
2024-02-29T03:36:41.190Z,96993.91
2024-02-29T03:39:12.499Z,96992.13
2024-02-29T03:41:43.307Z,96995.91
2024-02-29T03:44:10.731Z,96988.09
2024-02-29T03:46:38.113Z,96989.28
2024-02-29T03:49:05.677Z,96988.84
2024-02-29T03:51:33.444Z,96988.03
2024-02-29T03:54:00.788Z,96983.19
2024-02-29T03:56:28.331Z,96992.41
2024-02-29T03:58:55.608Z,96981.59
2024-02-29T04:01:22.795Z,96985.28
2024-02-29T04:03:50.094Z,96975.84
2024-02-29T04:06:17.509Z,96990.47
2024-02-29T04:08:45.127Z,96980.66
2024-02-29T04:11:12.484Z,96977.44
2024-02-29T04:13:39.963Z,96983.84
2024-02-29T04:16:07.453Z,96977.34
2024-02-29T04:18:34.720Z,96980.31
2024-02-29T04:21:02.232Z,96972.63
2024-02-29T04:23:29.889Z,96971.34
2024-02-29T04:25:57.095Z,96971.34
2024-02-29T04:28:24.591Z,96969.78
2024-02-29T04:30:52.190Z,96963.75
2024-02-29T04:33:19.562Z,96967.56
2024-02-29T04:35:46.768Z,96961.38
2024-02-29T04:38:14.476Z,96958.16
2024-02-29T04:40:42.307Z,96946.59
2024-02-29T04:43:10.456Z,96957.81
2024-02-29T04:45:38.902Z,96953.78
2024-02-29T04:48:06.855Z,96952.13
2024-02-29T04:50:35.115Z,96949.91
2024-02-29T04:53:03.215Z,96951.19
2024-02-29T04:55:32.282Z,96949.53
2024-02-29T04:58:00.496Z,96950.22
2024-02-29T05:00:28.176Z,96946.22
2024-02-29T05:02:55.982Z,96940.53
2024-02-29T05:05:23.548Z,96945.84
2024-02-29T05:07:51.513Z,96940.06
2024-02-29T05:10:19.536Z,96937.00
2024-02-29T05:12:47.723Z,96926.78
2024-02-29T05:15:15.585Z,96921.50
2024-02-29T05:17:43.654Z,96929.63
2024-02-29T05:20:11.448Z,96928.34
2024-02-29T05:22:40.026Z,96923.50
2024-02-29T05:25:07.906Z,96932.69
2024-02-29T05:27:35.715Z,96927.28
2024-02-29T05:30:03.493Z,96925.50
2024-02-29T05:32:39.587Z,96922.69
2024-02-29T05:35:13.287Z,96910.16
2024-02-29T05:37:40.509Z,96915.69
2024-02-29T05:40:07.708Z,96913.59
2024-02-29T05:42:36.248Z,96915.47
2024-02-29T05:45:03.694Z,96921.06
2024-02-29T05:47:31.921Z,96919.72
2024-02-29T05:49:59.874Z,96905.66
2024-02-29T05:52:27.892Z,96911.91
2024-02-29T05:54:55.542Z,96902.69
2024-02-29T05:57:23.645Z,96896.53
2024-02-29T05:59:50.889Z,96894.28
2024-02-29T06:02:18.223Z,96906.00
2024-02-29T06:04:48.679Z,96902.78
2024-02-29T06:07:16.442Z,96898.66
2024-02-29T06:09:44.609Z,96895.50
2024-02-29T06:12:12.704Z,96897.00
2024-02-29T06:14:40.017Z,96892.75
2024-02-29T06:17:06.950Z,96897.72
2024-02-29T06:19:34.282Z,96903.50
2024-02-29T06:22:02.280Z,96899.00
2024-02-29T06:24:29.957Z,96895.50
2024-02-29T06:26:57.407Z,96897.38
2024-02-29T06:29:24.904Z,96888.25
2024-02-29T06:31:54.219Z,96892.06
2024-02-29T06:34:24.081Z,96897.72
2024-02-29T06:36:54.566Z,96891.81
2024-02-29T06:39:24.802Z,96896.28
2024-02-29T06:41:52.678Z,96892.75
2024-02-29T06:44:20.768Z,96888.25
2024-02-29T06:46:48.406Z,96881.16
2024-02-29T06:49:16.069Z,96888.50
2024-02-29T06:51:43.465Z,96890.41
2024-02-29T06:54:11.109Z,96889.56
2024-02-29T06:56:40.857Z,96882.69
2024-02-29T06:59:08.276Z,96881.84
2024-02-29T07:01:35.529Z,96880.22
2024-02-29T07:04:03.282Z,96893.69
2024-02-29T07:06:30.360Z,96886.13
2024-02-29T07:08:57.977Z,96882.69
2024-02-29T07:11:25.831Z,96892.72
2024-02-29T07:13:53.324Z,96887.25
2024-02-29T07:16:20.723Z,96879.25
2024-02-29T07:18:47.933Z,96879.97
2024-02-29T07:21:17.469Z,96883.19
2024-02-29T07:23:47.509Z,96878.22
2024-02-29T07:26:14.563Z,96876.09
2024-02-29T07:28:42.325Z,96863.66
2024-02-29T07:31:09.947Z,96869.56
2024-02-29T07:33:40.737Z,96868.22
2024-02-29T07:36:08.199Z,96872.28
2024-02-29T07:38:36.863Z,96867.19
2024-02-29T07:41:05.468Z,96859.78
2024-02-29T07:43:32.959Z,96864.84
2024-02-29T07:46:01.412Z,96865.53
2024-02-29T07:48:29.926Z,96860.31
2024-02-29T07:50:58.810Z,96854.78
2024-02-29T07:53:26.170Z,96848.72
2024-02-29T07:55:53.679Z,96856.28
2024-02-29T08:01:25.243Z,96858.66
2024-02-29T08:03:56.229Z,96854.09
2024-02-29T08:06:25.791Z,96851.41
2024-02-29T08:08:53.875Z,96857.41
2024-02-29T08:11:21.511Z,96851.25
2024-02-29T08:13:49.900Z,96854.81
2024-02-29T08:16:18.405Z,96853.50
2024-02-29T08:18:46.814Z,96849.31
2024-02-29T08:21:14.146Z,96847.16
2024-02-29T08:23:43.637Z,96838.22
2024-02-29T08:26:24.882Z,96845.25
2024-02-29T08:28:58.067Z,96842.03
2024-02-29T08:31:54.177Z,96839.56
2024-02-29T08:34:41.403Z,96834.75
2024-02-29T08:37:08.997Z,96842.75
2024-02-29T08:39:37.403Z,96836.53
2024-02-29T08:42:08.194Z,96834.41
2024-02-29T08:44:36.205Z,96830.81
2024-02-29T08:47:04.237Z,96831.53
2024-02-29T08:49:32.253Z,96832.94
2024-02-29T08:52:00.368Z,96834.47
2024-02-29T08:54:27.494Z,96833.31
2024-02-29T08:56:54.912Z,96831.53
2024-02-29T08:59:22.512Z,96828.28
2024-02-29T09:01:50.832Z,96835.25
2024-02-29T09:04:43.255Z,96831.53
2024-02-29T09:07:11.311Z,96829.31
2024-02-29T09:09:39.109Z,96812.97
2024-02-29T09:12:08.006Z,96817.66
2024-02-29T09:14:35.724Z,96815.31
2024-02-29T09:17:03.578Z,96818.34
2024-02-29T09:19:32.589Z,96815.63
2024-02-29T09:22:01.415Z,96798.91
2024-02-29T09:24:30.695Z,96808.78
2024-02-29T09:26:58.526Z,96806.06
2024-02-29T09:32:54.629Z,96812.63
2024-02-29T09:35:25.971Z,96802.09
2024-02-29T09:37:54.232Z,96800.16
2024-02-29T09:40:25.891Z,96789.31
2024-02-29T09:42:55.140Z,96800.16
2024-02-29T09:45:24.991Z,96787.03
2024-02-29T09:47:53.835Z,96788.75
2024-02-29T09:50:23.936Z,96783.38
2024-02-29T09:52:51.453Z,96783.09
2024-02-29T09:55:23.501Z,96788.78
2024-02-29T09:57:53.276Z,96776.97
2024-02-29T10:00:22.247Z,96771.16
2024-02-29T10:02:53.729Z,96779.25
2024-02-29T10:05:23.064Z,96757.94
2024-02-29T10:07:50.039Z,96751.41
2024-02-29T10:10:17.295Z,96757.22
2024-02-29T10:12:45.134Z,96751.41
2024-02-29T10:15:12.628Z,96745.81
2024-02-29T10:17:39.780Z,96742.03
2024-02-29T10:20:07.228Z,96741.81
2024-02-29T10:22:34.955Z,96747.34
2024-02-29T10:25:01.954Z,96736.19
2024-02-29T10:27:35.223Z,96727.84
2024-02-29T10:30:02.253Z,96725.09
2024-02-29T10:32:29.782Z,96730.09
2024-02-29T10:34:56.975Z,96726.28
2024-02-29T10:37:24.365Z,96717.19
2024-02-29T10:39:51.752Z,96719.38
2024-02-29T10:42:19.425Z,96706.69
2024-02-29T10:44:48.132Z,96695.25
2024-02-29T10:47:15.711Z,96689.06
2024-02-29T10:49:43.009Z,96692.47
2024-02-29T10:52:10.789Z,96686.13
2024-02-29T10:54:37.890Z,96685.38
2024-02-29T10:57:04.884Z,96686.34
2024-02-29T10:59:32.809Z,96688.78
2024-02-29T11:02:00.941Z,96685.72
2024-02-29T11:04:28.713Z,96688.16
2024-02-29T11:06:57.127Z,96683.72
2024-02-29T11:09:27.564Z,96669.16
2024-02-29T11:11:56.138Z,96665.88
2024-02-29T11:14:23.620Z,96657.13
2024-02-29T11:16:51.424Z,96655.81
2024-02-29T11:19:19.676Z,96652.09
2024-02-29T11:21:47.557Z,96643.50
2024-02-29T11:24:15.321Z,96638.28
2024-02-29T11:26:43.792Z,96637.94
2024-02-29T11:29:11.234Z,96637.28
2024-02-29T11:31:39.485Z,96638.41
2024-02-29T11:34:07.173Z,96633.88
2024-02-29T11:36:35.913Z,96639.03
2024-02-29T11:39:06.948Z,96631.75
2024-02-29T11:41:34.161Z,96624.25
2024-02-29T11:44:02.128Z,96630.66
2024-02-29T11:46:29.646Z,96620.28
2024-02-29T11:48:59.766Z,96618.38
2024-02-29T11:51:28.650Z,96617.19
2024-02-29T11:53:56.306Z,96608.00
2024-02-29T11:56:25.065Z,96597.56
2024-02-29T11:58:54.159Z,96598.94
2024-02-29T12:01:22.309Z,96586.38
2024-02-29T12:03:50.577Z,96587.03
2024-02-29T12:06:20.494Z,96580.66
2024-02-29T12:08:48.147Z,96577.91
2024-02-29T12:11:15.985Z,96567.97
2024-02-29T12:13:44.739Z,96566.84
2024-02-29T12:16:12.481Z,96559.91
2024-02-29T12:18:41.162Z,96559.47
2024-02-29T12:21:09.053Z,96544.25
2024-02-29T12:23:36.760Z,96557.66
2024-02-29T12:26:15.148Z,96545.31
2024-02-29T12:28:42.684Z,96546.22
2024-02-29T12:31:10.231Z,96532.13
2024-02-29T12:33:38.024Z,96539.44
2024-02-29T12:36:05.437Z,96524.44
2024-02-29T12:38:32.815Z,96520.31
2024-02-29T12:41:00.163Z,96519.78
2024-02-29T12:43:28.437Z,96512.34
2024-02-29T12:45:55.849Z,96498.69
2024-02-29T12:48:23.161Z,96507.09
2024-02-29T12:50:50.708Z,96497.28
2024-02-29T12:53:18.090Z,96484.31
2024-02-29T12:55:45.365Z,96482.28
2024-02-29T12:58:12.976Z,96484.34
2024-02-29T13:00:40.832Z,96485.31
2024-02-29T13:03:09.030Z,96459.19
2024-02-29T13:05:40.109Z,96453.28
2024-02-29T13:08:07.561Z,96447.41
2024-02-29T13:10:35.063Z,96451.22
2024-02-29T13:13:09.332Z,96439.03
2024-02-29T13:15:38.049Z,96437.50
2024-02-29T13:18:05.700Z,96438.00
2024-02-29T13:20:33.060Z,96434.47
2024-02-29T13:23:00.423Z,96420.69
2024-02-29T13:25:27.867Z,96409.25
2024-02-29T13:27:55.675Z,96411.13
2024-02-29T13:30:23.924Z,96415.56
2024-02-29T13:32:51.463Z,96405.09
2024-02-29T13:35:19.185Z,96399.97
2024-02-29T13:37:48.470Z,96396.19
2024-02-29T13:40:19.306Z,96387.63
2024-02-29T13:42:48.463Z,96383.81
2024-02-29T13:45:16.282Z,96384.22
2024-02-29T13:47:43.996Z,96378.72
2024-02-29T13:50:13.927Z,96369.19
2024-02-29T13:52:41.834Z,96368.81
2024-02-29T13:55:09.807Z,96364.56
2024-02-29T13:57:38.996Z,96365.03
2024-02-29T14:00:07.819Z,96368.25
2024-02-29T14:02:35.606Z,96365.31
2024-02-29T14:05:03.406Z,96364.16
2024-02-29T14:07:31.679Z,96357.09
2024-02-29T14:10:02.709Z,96357.63
2024-02-29T14:12:33.290Z,96350.44
2024-02-29T14:15:01.486Z,96337.53
2024-02-29T14:17:32.240Z,96336.72
2024-02-29T14:20:00.044Z,96341.91
2024-02-29T14:22:28.163Z,96328.50
2024-02-29T14:24:58.402Z,96324.88
2024-02-29T14:27:27.453Z,96322.75
2024-02-29T14:29:55.265Z,96320.31
2024-02-29T14:32:23.831Z,96324.38
2024-02-29T14:34:51.806Z,96304.22
2024-02-29T14:37:19.360Z,96315.16
2024-02-29T14:39:48.234Z,96308.59
2024-02-29T14:42:16.837Z,96303.91
2024-02-29T14:44:44.879Z,96292.72
2024-02-29T14:47:13.756Z,96286.53
2024-02-29T14:49:42.001Z,96295.31
2024-02-29T14:52:11.101Z,96284.97
2024-02-29T14:54:38.650Z,96284.88
2024-02-29T14:57:18.667Z,96269.13
2024-02-29T14:59:55.582Z,96277.66
2024-02-29T15:02:23.766Z,96269.13
2024-02-29T15:04:53.960Z,96266.84
2024-02-29T15:07:31.864Z,96259.78
2024-02-29T15:10:03.960Z,96256.31
2024-02-29T15:12:50.135Z,96267.47
2024-02-29T15:15:17.877Z,96258.94
2024-02-29T15:17:45.714Z,96257.13
2024-02-29T15:20:13.372Z,96257.13
2024-02-29T15:22:42.838Z,96253.69
2024-02-29T15:25:11.465Z,96258.63
2024-02-29T15:27:39.076Z,96243.88
2024-02-29T15:30:20.601Z,96239.44
2024-02-29T15:32:48.590Z,96243.53
2024-02-29T15:35:16.633Z,96247.28
2024-02-29T15:37:44.326Z,96242.56
2024-02-29T15:40:12.107Z,96242.44
2024-02-29T15:42:40.008Z,96243.22
2024-02-29T15:45:09.695Z,96235.19
2024-02-29T15:47:37.521Z,96231.25
2024-02-29T15:50:06.264Z,96235.03
2024-02-29T15:52:33.706Z,96227.66
2024-02-29T15:55:00.869Z,96222.75
2024-02-29T15:57:28.610Z,96226.03
2024-02-29T15:59:56.178Z,96217.66
2024-02-29T16:02:24.907Z,96235.16
2024-02-29T16:04:53.942Z,96220.97
2024-02-29T16:07:21.664Z,96213.94
2024-02-29T16:09:52.656Z,96217.44
2024-02-29T16:12:21.819Z,96216.63
2024-02-29T16:14:50.732Z,96216.88
2024-02-29T16:17:20.683Z,96210.47
2024-02-29T16:19:50.147Z,96212.19
2024-02-29T16:22:19.695Z,96213.84
2024-02-29T16:24:48.858Z,96211.97
2024-02-29T16:27:18.241Z,96198.50
2024-02-29T16:29:46.348Z,96208.59
2024-02-29T16:32:14.091Z,96200.28
2024-02-29T16:34:41.598Z,96186.63
2024-02-29T16:37:19.333Z,96189.91
2024-02-29T16:39:46.935Z,96196.69
2024-02-29T16:42:14.190Z,96195.91
2024-02-29T16:44:43.369Z,96192.47
2024-02-29T16:47:15.236Z,96198.91
2024-02-29T16:49:44.761Z,96187.53
2024-02-29T16:52:12.152Z,96193.25
2024-02-29T16:54:39.933Z,96193.72
2024-02-29T16:57:08.741Z,96196.63
2024-02-29T16:59:36.135Z,96194.56
2024-02-29T17:02:04.287Z,96186.88
2024-02-29T17:04:32.723Z,96187.31
2024-02-29T17:07:00.463Z,96189.63
2024-02-29T17:09:28.076Z,96192.69
2024-02-29T17:11:55.119Z,96197.25
2024-02-29T17:14:23.812Z,96191.41
2024-02-29T17:16:53.121Z,96193.94
2024-02-29T17:19:20.397Z,96187.75
2024-02-29T17:21:48.310Z,96195.94
2024-02-29T17:24:15.977Z,96194.16
2024-02-29T17:26:43.625Z,96196.25
2024-02-29T17:29:10.828Z,96194.88
2024-02-29T17:31:38.601Z,96203.16
2024-02-29T17:34:07.994Z,96195.06
2024-02-29T17:36:40.132Z,96194.47
2024-02-29T17:39:10.850Z,96192.97
2024-02-29T17:41:40.854Z,96196.69
2024-02-29T17:44:09.038Z,96194.94
2024-02-29T17:46:37.254Z,96197.13
2024-02-29T17:49:07.428Z,96199.88
2024-02-29T17:51:35.102Z,96195.22
2024-02-29T17:54:02.372Z,96181.84
2024-02-29T17:56:29.565Z,96189.78
2024-02-29T17:58:57.719Z,96192.09
2024-02-29T18:01:26.127Z,96193.59
2024-02-29T18:03:53.505Z,96190.03
2024-02-29T18:06:25.053Z,96196.75
2024-02-29T18:08:52.292Z,96193.09
2024-02-29T18:11:24.674Z,96185.13
2024-02-29T18:13:52.078Z,96180.03
2024-02-29T18:16:28.030Z,96187.84
2024-02-29T18:18:56.686Z,96181.91
2024-02-29T18:21:24.392Z,96180.88
2024-02-29T18:23:56.858Z,96183.75
2024-02-29T18:26:24.426Z,96193.47
2024-02-29T18:28:53.901Z,96189.91
2024-02-29T18:31:21.532Z,96190.16
2024-02-29T18:33:49.860Z,96187.31
2024-02-29T18:36:20.277Z,96186.75
2024-02-29T18:38:47.924Z,96186.78
2024-02-29T18:41:15.406Z,96171.72
2024-02-29T18:43:42.986Z,96181.00
2024-02-29T18:46:18.516Z,96181.59
2024-02-29T18:48:48.013Z,96177.47
2024-02-29T18:51:16.351Z,96183.78
2024-02-29T18:53:44.375Z,96173.47
2024-02-29T18:56:13.653Z,96186.75
2024-02-29T18:58:43.887Z,96181.81
2024-02-29T19:01:21.026Z,96186.94
2024-02-29T19:03:53.822Z,96178.72
2024-02-29T19:06:27.513Z,96182.81
2024-02-29T19:08:56.139Z,96185.91
2024-02-29T19:11:24.895Z,96173.59
2024-02-29T19:13:56.945Z,96186.25
2024-02-29T19:16:27.670Z,96170.09
2024-02-29T19:18:57.565Z,96168.59
2024-02-29T19:21:27.264Z,96184.03
2024-02-29T19:23:54.888Z,96165.56
2024-02-29T19:26:28.774Z,96174.91
2024-02-29T19:29:01.061Z,96171.25
2024-02-29T19:31:30.463Z,96176.59
2024-02-29T19:33:59.190Z,96178.03
2024-02-29T19:36:29.114Z,96175.56
2024-02-29T19:38:56.804Z,96172.44
2024-02-29T19:41:24.759Z,96169.63
2024-02-29T19:43:52.644Z,96167.06
2024-02-29T19:46:20.563Z,96174.72
2024-02-29T19:48:50.508Z,96167.75
2024-02-29T19:51:20.912Z,96168.88
2024-02-29T19:53:53.537Z,96173.22
2024-02-29T19:56:23.689Z,96169.53
2024-02-29T19:58:55.813Z,96174.03
2024-02-29T20:01:28.141Z,96174.72
2024-02-29T20:04:00.737Z,96165.25
2024-02-29T20:06:31.882Z,96166.50
2024-02-29T20:09:01.448Z,96169.66
2024-02-29T20:11:34.546Z,96171.16
2024-02-29T20:14:06.157Z,96179.09
2024-02-29T20:16:39.123Z,96168.94
2024-02-29T20:19:13.058Z,96167.91
2024-02-29T20:21:41.890Z,96167.44
2024-02-29T20:24:13.195Z,96168.28
2024-02-29T20:26:44.770Z,96167.28
2024-02-29T20:29:13.373Z,96177.06
2024-02-29T20:31:41.286Z,96165.97
2024-02-29T20:34:11.144Z,96174.19
2024-02-29T20:36:39.853Z,96173.09
2024-02-29T20:39:08.235Z,96169.94
2024-02-29T20:41:40.298Z,96168.97
2024-02-29T20:44:18.996Z,96170.31
2024-02-29T20:46:54.211Z,96159.94
2024-02-29T20:49:27.226Z,96155.41
2024-02-29T20:51:55.581Z,96166.38
2024-02-29T20:54:24.038Z,96168.38
2024-02-29T20:56:52.662Z,96159.06
2024-02-29T20:59:20.580Z,96163.34
2024-02-29T21:01:52.817Z,96159.66
2024-02-29T21:04:23.932Z,96157.91
2024-02-29T21:06:54.331Z,96159.53
2024-02-29T21:09:22.485Z,96160.47
2024-02-29T21:11:53.122Z,96164.59
2024-02-29T21:14:22.795Z,96154.84
2024-02-29T21:16:50.494Z,96166.66
2024-02-29T21:19:18.257Z,96161.97
2024-02-29T21:21:46.183Z,96154.19
2024-02-29T21:24:13.809Z,96160.50
2024-02-29T21:26:41.007Z,96161.00
2024-02-29T21:29:09.639Z,96165.22
2024-02-29T21:31:48.095Z,96165.53
2024-02-29T21:34:21.136Z,96166.50
2024-02-29T21:36:49.696Z,96166.78
2024-02-29T21:39:19.360Z,96164.75
2024-02-29T21:41:52.525Z,96171.84
2024-02-29T21:44:31.593Z,96164.03
2024-02-29T21:47:01.453Z,96171.00
2024-02-29T21:49:29.201Z,96162.09
2024-02-29T21:51:56.727Z,96171.97
2024-02-29T21:54:25.453Z,96169.69
2024-02-29T21:56:53.591Z,96172.75
2024-02-29T21:59:23.165Z,96169.13
2024-02-29T22:01:51.905Z,96160.41
2024-02-29T22:04:20.187Z,96155.38
2024-02-29T22:06:48.409Z,96157.88
2024-02-29T22:09:18.096Z,96161.00
2024-02-29T22:11:45.691Z,96158.00
2024-02-29T22:14:21.953Z,96154.03
2024-02-29T22:16:51.167Z,96157.47
2024-02-29T22:19:19.419Z,96163.91
2024-02-29T22:21:47.081Z,96157.75
2024-02-29T22:24:16.878Z,96151.56
2024-02-29T22:26:45.616Z,96156.94
2024-02-29T22:29:13.887Z,96156.22
2024-02-29T22:31:41.793Z,96160.19
2024-02-29T22:34:10.037Z,96159.28
2024-02-29T22:36:37.711Z,96158.56
2024-02-29T22:39:05.026Z,96153.84
2024-02-29T22:41:37.927Z,96166.06
2024-02-29T22:44:08.356Z,96154.72
2024-02-29T22:46:36.632Z,96157.22
2024-02-29T22:49:04.333Z,96158.50
2024-02-29T22:51:31.879Z,96152.97
2024-02-29T22:54:00.152Z,96158.13
2024-02-29T22:56:27.396Z,96156.13
2024-02-29T22:58:54.831Z,96164.28
2024-02-29T23:01:22.634Z,96169.38
2024-02-29T23:03:50.229Z,96167.88
2024-02-29T23:06:17.684Z,96161.28
2024-02-29T23:08:45.451Z,96164.56
2024-02-29T23:11:13.183Z,96154.75
2024-02-29T23:13:40.650Z,96157.34
2024-02-29T23:16:07.804Z,96151.38
2024-02-29T23:18:35.066Z,96157.44
2024-02-29T23:21:02.584Z,96155.94
2024-02-29T23:23:31.625Z,96152.81
2024-02-29T23:26:06.679Z,96152.00
2024-02-29T23:28:35.401Z,96155.75
2024-02-29T23:31:03.461Z,96156.06
2024-02-29T23:33:47.628Z,96156.38
2024-02-29T23:36:20.802Z,96161.44
2024-02-29T23:38:49.089Z,96156.03
2024-02-29T23:41:17.129Z,96161.28
2024-02-29T23:43:45.475Z,96157.19
2024-02-29T23:49:07.803Z,96158.69
2024-02-29T23:51:35.977Z,96163.22
2024-02-29T23:54:05.940Z,96166.50
2024-02-29T23:56:36.728Z,96160.47
2024-02-29T23:59:05.686Z,96167.31
